首页
METAR-TAF:

METAR-TAF

机场 :

Hattiesburg-Laurel Regional Airport

哈蒂斯堡 / 月桂树, 密西西比州, 美国

纬度: 31-28N, 经度: 089-20W, 海拔: 91米

当前天气观测

该预报发布于16分钟前的16:56 UTC
风速4节,风向东转东北
温度 20°C
湿度 46%
气压 1020 hPa
能見度: 16.1公里
天空无云

METAR: KPIB 021656Z AUTO 07004KT 10SM CLR 20/08 A3012 RMK AO2 SLP199 T02000083

时间: 12:12 (17:12 UTC)

预报

该预报发布于5小时和46分钟前的11:26 UTC
预报有效从02日的 12点(UTC)到 03日的 12点(UTC)
风速4节,风向东转东南
能見度: 10公里
少量云层高于25000英尺

TAF: KPIB 021126Z 0212/0312 11004KT P6SM FEW250

超过4000个机场的气象观测和天气预报(METAR&TAF报告)。

可查询的气象台以黄色和红色小点在地图上表示。

将鼠标移到小点上方,可查看气象台名称。

然后点击查看天气观测和预报。

如需切换地图:点击带黑十字的绿色按钮放大地图;点击带横线的绿色按钮缩小地图;或者点击绿色箭头查看邻近地区的地图。


METAR-TAF: